createdAt,value
2018-02-19T00:01:55.995Z,62.95
2018-02-19T00:04:23.577Z,62.80
2018-02-19T00:06:51.127Z,62.47
2018-02-19T00:09:18.893Z,62.19
2018-02-19T00:11:46.618Z,62.72
2018-02-19T00:14:14.212Z,65.63
2018-02-19T00:16:41.803Z,68.16
2018-02-19T00:19:09.359Z,68.62
2018-02-19T00:21:36.965Z,67.17
2018-02-19T00:24:04.523Z,65.78
2018-02-19T00:26:32.083Z,64.56
2018-02-19T00:28:59.682Z,63.85
2018-02-19T00:31:27.224Z,63.46
2018-02-19T00:33:54.781Z,64.24
2018-02-19T00:36:22.374Z,66.14
2018-02-19T00:38:49.921Z,65.79
2018-02-19T00:41:17.678Z,64.93
2018-02-19T00:43:45.264Z,64.24
2018-02-19T00:46:12.807Z,63.62
2018-02-19T00:48:40.403Z,63.18
2018-02-19T00:51:07.994Z,62.77
2018-02-19T00:53:35.582Z,62.41
2018-02-19T00:56:03.139Z,62.15
2018-02-19T00:58:30.723Z,62.23
2018-02-19T01:00:58.311Z,61.95
2018-02-19T01:03:25.910Z,61.88
2018-02-19T01:05:53.454Z,61.94
2018-02-19T01:08:21.060Z,62.13
2018-02-19T01:10:48.659Z,61.74
2018-02-19T01:13:16.762Z,61.92
2018-02-19T01:15:45.124Z,62.09
2018-02-19T01:18:12.711Z,61.86
2018-02-19T01:20:40.296Z,61.79
2018-02-19T01:23:07.887Z,62.86
2018-02-19T01:25:35.430Z,63.87
2018-02-19T01:28:03.022Z,64.05
2018-02-19T01:30:30.570Z,63.59
2018-02-19T01:32:58.451Z,63.27
2018-02-19T01:35:26.390Z,62.90
2018-02-19T01:37:53.987Z,62.64
2018-02-19T01:40:22.045Z,62.58
2018-02-19T01:42:49.639Z,62.56
2018-02-19T01:45:17.174Z,62.39
2018-02-19T01:47:44.770Z,62.37
2018-02-19T01:50:16.202Z,61.94
2018-02-19T01:52:43.751Z,61.80
2018-02-19T01:55:11.334Z,61.92
2018-02-19T01:57:38.891Z,61.99
2018-02-19T02:00:06.471Z,62.05
2018-02-19T02:02:34.032Z,61.65
2018-02-19T02:05:01.963Z,61.74
2018-02-19T02:07:29.516Z,62.25
2018-02-19T02:09:57.110Z,62.30
2018-02-19T02:12:24.654Z,62.14
2018-02-19T02:14:52.463Z,62.06
2018-02-19T02:17:20.063Z,62.48
2018-02-19T02:19:47.610Z,63.34
2018-02-19T02:22:15.222Z,64.37
2018-02-19T02:24:42.822Z,64.98
2018-02-19T02:27:10.375Z,64.30
2018-02-19T02:29:37.928Z,63.61
2018-02-19T02:32:05.896Z,63.29
2018-02-19T02:34:33.435Z,62.97
2018-02-19T02:37:01.022Z,62.63
2018-02-19T02:39:28.576Z,62.51
2018-02-19T02:41:56.135Z,62.29
2018-02-19T02:44:23.733Z,62.09
2018-02-19T02:46:51.299Z,61.92
2018-02-19T02:49:18.894Z,62.54
2018-02-19T02:51:46.846Z,63.39
2018-02-19T02:54:14.390Z,63.25
2018-02-19T02:56:41.979Z,62.95
2018-02-19T02:59:09.551Z,62.63
2018-02-19T03:01:37.098Z,62.56
2018-02-19T03:04:04.690Z,62.39
2018-02-19T03:06:32.393Z,62.21
2018-02-19T03:08:59.944Z,62.42
2018-02-19T03:11:27.532Z,62.59
2018-02-19T03:13:55.118Z,62.98
2018-02-19T03:16:22.658Z,62.73
2018-02-19T03:18:50.316Z,62.55
2018-02-19T03:21:17.858Z,63.09
2018-02-19T03:23:45.408Z,63.26
2018-02-19T03:26:13.127Z,63.03
2018-02-19T03:28:40.719Z,62.95
2018-02-19T03:31:08.306Z,62.65
2018-02-19T03:33:35.851Z,63.30
2018-02-19T03:36:03.439Z,63.44
2018-02-19T03:38:31.032Z,63.34
2018-02-19T03:40:58.580Z,63.71
2018-02-19T03:43:26.164Z,64.45
2018-02-19T03:45:53.745Z,64.56
2018-02-19T03:48:21.286Z,64.28
2018-02-19T03:50:48.825Z,63.78
2018-02-19T03:53:16.401Z,63.54
2018-02-19T03:55:43.939Z,63.30
2018-02-19T03:58:11.525Z,63.11
2018-02-19T04:00:39.101Z,63.22
2018-02-19T04:03:06.638Z,63.64
2018-02-19T04:05:34.229Z,63.56
2018-02-19T04:08:01.767Z,64.37
2018-02-19T04:10:29.364Z,64.59
2018-02-19T04:12:56.935Z,64.68
2018-02-19T04:15:24.494Z,64.34
2018-02-19T04:17:52.030Z,65.03
2018-02-19T04:20:19.640Z,64.65
2018-02-19T04:22:47.259Z,64.89
2018-02-19T04:25:14.855Z,65.25
2018-02-19T04:27:43.393Z,65.06
2018-02-19T04:30:11.461Z,64.75
2018-02-19T04:32:39.130Z,64.61
2018-02-19T04:35:06.716Z,64.49
2018-02-19T04:37:34.255Z,64.14
2018-02-19T04:40:01.906Z,63.85
2018-02-19T04:42:29.669Z,63.33
2018-02-19T04:45:00.843Z,63.14
2018-02-19T04:47:28.383Z,62.86
2018-02-19T04:49:55.936Z,63.39
2018-02-19T04:52:23.532Z,63.95
2018-02-19T04:54:51.563Z,64.37
2018-02-19T04:57:19.142Z,64.93
2018-02-19T04:59:46.718Z,64.54
2018-02-19T05:02:14.258Z,64.23
2018-02-19T05:04:41.847Z,63.79
2018-02-19T05:07:09.434Z,64.12
2018-02-19T05:09:37.014Z,66.25
2018-02-19T05:12:04.598Z,68.85
2018-02-19T05:14:32.160Z,69.64
2018-02-19T05:16:59.747Z,69.23
2018-02-19T05:19:27.303Z,69.73
2018-02-19T05:21:54.882Z,68.50
2018-02-19T05:24:22.439Z,67.33
2018-02-19T05:26:50.024Z,66.41
2018-02-19T05:29:17.638Z,65.69
2018-02-19T05:31:45.897Z,65.03
2018-02-19T05:34:13.439Z,64.45
2018-02-19T05:36:41.050Z,63.98
2018-02-19T05:39:08.668Z,63.65
2018-02-19T05:41:36.325Z,62.73
2018-02-19T05:44:03.911Z,62.67
2018-02-19T05:46:32.607Z,62.81
2018-02-19T05:49:00.157Z,63.01
2018-02-19T05:51:27.752Z,63.56
2018-02-19T05:53:55.307Z,64.10
2018-02-19T05:56:22.889Z,63.94
2018-02-19T05:58:50.427Z,63.40
2018-02-19T06:01:18.811Z,63.69
2018-02-19T06:03:46.820Z,63.48
2018-02-19T06:06:14.599Z,63.86
2018-02-19T06:08:42.150Z,63.56
2018-02-19T06:11:10.301Z,63.39
2018-02-19T06:13:43.041Z,63.86
2018-02-19T06:16:10.640Z,63.48
2018-02-19T06:18:38.212Z,63.22
2018-02-19T06:21:05.836Z,63.46
2018-02-19T06:23:33.398Z,63.92
2018-02-19T06:26:00.986Z,64.33
2018-02-19T06:28:28.602Z,64.46
2018-02-19T06:30:56.201Z,63.73
2018-02-19T06:33:23.738Z,63.56
2018-02-19T06:35:51.326Z,63.40
2018-02-19T06:38:19.199Z,63.28
2018-02-19T06:40:46.752Z,62.12
2018-02-19T06:43:14.340Z,61.92
2018-02-19T06:45:41.948Z,61.16
2018-02-19T06:48:09.527Z,60.47
2018-02-19T06:50:37.081Z,60.57
2018-02-19T06:53:04.700Z,60.54
2018-02-19T06:55:32.340Z,60.26
2018-02-19T06:57:59.922Z,60.30
2018-02-19T07:00:27.474Z,60.13
2018-02-19T07:02:55.078Z,59.82
2018-02-19T07:05:22.655Z,59.81
2018-02-19T07:07:50.260Z,59.86
2018-02-19T07:10:17.855Z,59.97
2018-02-19T07:12:45.485Z,60.00
2018-02-19T07:15:13.151Z,59.99
2018-02-19T07:17:40.856Z,59.58
2018-02-19T07:20:08.422Z,59.43
2018-02-19T07:22:36.297Z,59.58
2018-02-19T07:25:04.043Z,59.87
2018-02-19T07:27:31.599Z,59.90
2018-02-19T07:29:59.712Z,59.81
2018-02-19T07:32:27.341Z,60.11
2018-02-19T07:34:54.981Z,60.44
2018-02-19T07:37:23.102Z,60.59
2018-02-19T07:39:50.684Z,62.67
2018-02-19T07:42:18.306Z,64.61
2018-02-19T07:44:45.956Z,67.11
2018-02-19T07:47:13.571Z,67.56
2018-02-19T07:49:41.224Z,66.84
2018-02-19T07:52:08.775Z,66.97
2018-02-19T07:54:36.419Z,67.48
2018-02-19T07:57:04.950Z,67.95
2018-02-19T07:59:32.511Z,68.30
2018-02-19T08:02:00.109Z,68.03
2018-02-19T08:04:28.676Z,67.85
2018-02-19T08:06:56.263Z,67.50
2018-02-19T08:09:23.802Z,66.36
2018-02-19T08:11:51.492Z,66.41
2018-02-19T08:14:19.555Z,67.69
2018-02-19T08:16:49.233Z,67.28
2018-02-19T08:19:17.199Z,67.81
2018-02-19T08:21:44.739Z,67.39
2018-02-19T08:24:12.346Z,66.08
2018-02-19T08:26:39.901Z,65.30
2018-02-19T08:29:07.487Z,64.32
2018-02-19T08:31:35.385Z,63.83
2018-02-19T08:34:03.040Z,63.99
2018-02-19T08:36:30.683Z,65.05
2018-02-19T08:38:58.344Z,64.88
2018-02-19T08:41:25.943Z,64.44
2018-02-19T08:43:53.500Z,63.86
2018-02-19T08:46:21.099Z,63.33
2018-02-19T08:48:48.718Z,62.70
2018-02-19T08:51:17.868Z,62.31
2018-02-19T08:53:45.643Z,62.26
2018-02-19T08:56:13.207Z,61.88
2018-02-19T08:58:40.813Z,62.95
2018-02-19T09:01:08.389Z,62.89
2018-02-19T09:03:36.242Z,63.04
2018-02-19T09:06:04.871Z,63.02
2018-02-19T09:08:32.483Z,62.88
2018-02-19T09:11:00.108Z,62.08
2018-02-19T09:13:28.872Z,61.52
2018-02-19T09:15:56.704Z,61.00
2018-02-19T09:18:24.680Z,60.31
2018-02-19T09:20:52.235Z,60.27
2018-02-19T09:23:19.834Z,59.15
2018-02-19T09:25:47.774Z,58.76
2018-02-19T09:28:15.364Z,58.56
2018-02-19T09:30:43.565Z,58.52
2018-02-19T09:33:11.180Z,58.32
2018-02-19T09:35:38.819Z,58.30
2018-02-19T09:38:06.402Z,57.96
2018-02-19T09:40:34.065Z,57.95
2018-02-19T09:43:01.624Z,58.20
2018-02-19T09:45:29.420Z,57.86
2018-02-19T09:47:56.978Z,57.80
2018-02-19T09:50:26.630Z,57.72
2018-02-19T09:52:54.547Z,57.87
2018-02-19T09:55:22.103Z,58.07
2018-02-19T09:57:49.769Z,58.17
2018-02-19T10:00:17.340Z,58.35
2018-02-19T10:02:44.948Z,58.27
2018-02-19T10:05:12.598Z,58.09
2018-02-19T10:07:40.256Z,58.15
2018-02-19T10:10:08.820Z,58.16
2018-02-19T10:12:36.419Z,58.09
2018-02-19T10:15:04.015Z,58.14
2018-02-19T10:17:31.554Z,58.17
2018-02-19T10:19:59.119Z,58.09
2018-02-19T10:22:26.716Z,58.17
2018-02-19T10:24:54.260Z,58.23
2018-02-19T10:27:22.620Z,58.27
2018-02-19T10:29:50.203Z,58.36
2018-02-19T10:32:17.741Z,58.39
2018-02-19T10:34:45.326Z,58.39
2018-02-19T10:37:12.930Z,58.26
2018-02-19T10:39:40.563Z,58.10
2018-02-19T10:42:08.218Z,58.14
2018-02-19T10:44:35.843Z,58.22
2018-02-19T10:47:03.409Z,58.35
2018-02-19T10:49:30.975Z,58.50
2018-02-19T10:51:58.573Z,58.58
2018-02-19T10:54:26.188Z,58.43
2018-02-19T10:56:53.795Z,58.57
2018-02-19T10:59:21.376Z,58.47
2018-02-19T11:01:48.925Z,58.17
2018-02-19T11:04:16.637Z,57.50
2018-02-19T11:06:44.390Z,57.52
2018-02-19T11:09:12.733Z,57.88
2018-02-19T11:11:40.332Z,58.25
2018-02-19T11:14:07.933Z,58.21
2018-02-19T11:16:35.479Z,58.25
2018-02-19T11:19:03.030Z,58.41
2018-02-19T11:21:30.612Z,58.54
2018-02-19T11:23:58.154Z,58.40
2018-02-19T11:26:26.580Z,58.65
2018-02-19T11:28:54.168Z,58.86
2018-02-19T11:31:22.570Z,58.88
2018-02-19T11:33:50.147Z,58.76
2018-02-19T11:36:17.708Z,58.79
2018-02-19T11:38:55.272Z,58.88
2018-02-19T11:41:13.062Z,58.99
2018-02-19T11:43:40.664Z,59.00
2018-02-19T11:46:08.346Z,59.14
2018-02-19T11:48:35.969Z,59.20
2018-02-19T11:51:04.256Z,59.14
2018-02-19T11:53:31.805Z,59.34
2018-02-19T11:55:59.403Z,59.33
2018-02-19T11:58:27.026Z,59.25
2018-02-19T12:00:54.625Z,59.22
2018-02-19T12:03:22.174Z,58.95
2018-02-19T12:05:50.287Z,58.39
2018-02-19T12:08:18.654Z,58.45
2018-02-19T12:10:46.235Z,58.40
2018-02-19T12:13:13.820Z,58.44
2018-02-19T12:15:42.677Z,58.64
2018-02-19T12:18:10.277Z,58.71
2018-02-19T12:20:38.668Z,58.97
2018-02-19T12:23:06.258Z,58.96
2018-02-19T12:25:34.087Z,58.89
2018-02-19T12:28:01.635Z,58.86
2018-02-19T12:30:29.215Z,58.80
2018-02-19T12:32:56.815Z,58.80
2018-02-19T12:35:24.416Z,58.70
2018-02-19T12:37:52.007Z,58.65
2018-02-19T12:40:19.833Z,58.41
2018-02-19T12:42:47.421Z,58.26
2018-02-19T12:45:15.625Z,58.32
2018-02-19T12:47:43.453Z,58.37
2018-02-19T12:50:11.627Z,58.44
2018-02-19T12:52:39.219Z,58.58
2018-02-19T12:55:06.789Z,58.29
2018-02-19T12:57:34.398Z,57.80
2018-02-19T13:00:01.939Z,57.79
2018-02-19T13:02:29.517Z,57.93
2018-02-19T13:04:58.038Z,58.10
2018-02-19T13:07:25.728Z,58.23
2018-02-19T13:09:53.619Z,58.22
2018-02-19T13:12:21.212Z,58.31
2018-02-19T13:14:48.762Z,58.08
2018-02-19T13:17:17.306Z,58.02
2018-02-19T13:19:44.868Z,58.14
2018-02-19T13:22:12.465Z,58.29
2018-02-19T13:24:40.051Z,57.92
2018-02-19T13:27:08.220Z,57.97
2018-02-19T13:29:35.818Z,57.72
2018-02-19T13:32:04.306Z,57.35
2018-02-19T13:34:31.921Z,57.40
2018-02-19T13:36:59.524Z,57.68
2018-02-19T13:39:27.124Z,57.58
2018-02-19T13:41:54.675Z,57.51
2018-02-19T13:44:22.227Z,57.75
2018-02-19T13:46:50.349Z,57.92
2018-02-19T13:49:18.924Z,57.90
2018-02-19T13:51:47.449Z,57.79
2018-02-19T13:54:15.890Z,57.96
2018-02-19T13:56:44.462Z,58.05
2018-02-19T13:59:13.146Z,57.82
2018-02-19T14:01:43.561Z,57.66
2018-02-19T14:04:14.008Z,57.72
2018-02-19T14:06:42.334Z,57.78
2018-02-19T14:09:11.572Z,58.03
2018-02-19T14:11:39.971Z,58.10
2018-02-19T14:14:08.316Z,57.93
2018-02-19T14:16:35.903Z,57.89
2018-02-19T14:19:04.463Z,57.89
2018-02-19T14:21:32.003Z,58.01
2018-02-19T14:23:59.578Z,58.13
2018-02-19T14:26:27.824Z,57.96
2018-02-19T14:28:55.443Z,57.61
2018-02-19T14:31:22.995Z,57.31
2018-02-19T14:33:51.302Z,57.52
2018-02-19T14:36:19.114Z,57.76
2018-02-19T14:38:47.384Z,57.77
2018-02-19T14:41:14.976Z,57.86
2018-02-19T14:43:42.530Z,58.00
2018-02-19T14:46:11.010Z,58.11
2018-02-19T14:48:38.661Z,58.21
2018-02-19T14:51:06.506Z,58.28
2018-02-19T14:53:34.336Z,58.24
2018-02-19T14:56:02.806Z,58.15
2018-02-19T14:58:31.160Z,58.31
2018-02-19T15:00:58.694Z,58.38
2018-02-19T15:03:26.872Z,58.63
2018-02-19T15:05:54.490Z,58.63
2018-02-19T15:08:23.012Z,58.83
2018-02-19T15:10:50.594Z,58.89
2018-02-19T15:13:18.171Z,58.95
2018-02-19T15:15:45.715Z,59.13
2018-02-19T15:18:13.770Z,59.28
2018-02-19T15:20:41.309Z,59.30
2018-02-19T15:23:09.910Z,59.32
2018-02-19T15:25:39.399Z,59.45
2018-02-19T15:28:07.996Z,59.54
2018-02-19T15:30:37.034Z,59.62
2018-02-19T15:33:04.594Z,59.74
2018-02-19T15:35:32.147Z,59.78
2018-02-19T15:37:59.878Z,59.80
2018-02-19T15:40:28.101Z,59.81
2018-02-19T15:42:57.178Z,59.87
2018-02-19T15:45:24.805Z,59.92
2018-02-19T15:47:57.162Z,60.04
2018-02-19T15:50:25.749Z,60.05
2018-02-19T15:52:54.432Z,60.04
2018-02-19T15:55:23.700Z,60.06
2018-02-19T15:57:52.162Z,60.05
2018-02-19T16:00:20.218Z,60.11
2018-02-19T16:02:48.639Z,60.12
2018-02-19T16:05:16.200Z,60.17
2018-02-19T16:07:43.800Z,60.14
2018-02-19T16:10:13.108Z,60.24
2018-02-19T16:12:41.698Z,60.33
2018-02-19T16:15:10.168Z,60.35
2018-02-19T16:17:37.920Z,60.40
2018-02-19T16:20:06.471Z,60.42
2018-02-19T16:22:34.483Z,60.46
2018-02-19T16:25:02.014Z,60.58
2018-02-19T16:27:30.644Z,60.79
2018-02-19T16:29:59.956Z,60.80
2018-02-19T16:32:28.491Z,60.85
2018-02-19T16:34:57.326Z,60.84
2018-02-19T16:37:25.069Z,60.89
2018-02-19T16:39:53.315Z,60.83
2018-02-19T16:42:21.716Z,60.86
2018-02-19T16:44:49.462Z,60.83
2018-02-19T16:47:17.087Z,60.80
2018-02-19T16:49:44.629Z,60.80
2018-02-19T16:52:12.946Z,60.80
2018-02-19T16:54:40.496Z,60.82
2018-02-19T16:57:08.222Z,60.72
2018-02-19T16:59:35.780Z,60.76
2018-02-19T17:02:05.584Z,60.76
2018-02-19T17:04:34.098Z,60.71
2018-02-19T17:07:02.732Z,60.80
2018-02-19T17:09:31.597Z,60.82
2018-02-19T17:12:00.118Z,60.83
2018-02-19T17:14:29.773Z,60.80
2018-02-19T17:16:57.548Z,60.73
2018-02-19T17:19:26.170Z,60.75
2018-02-19T17:21:53.730Z,60.67
2018-02-19T17:24:21.995Z,60.71
2018-02-19T17:26:49.598Z,60.69
2018-02-19T17:29:17.219Z,60.63
2018-02-19T17:31:46.943Z,60.67
2018-02-19T17:34:14.526Z,60.61
2018-02-19T17:36:42.123Z,60.60
2018-02-19T17:39:10.015Z,60.58
2018-02-19T17:41:37.619Z,60.54
2018-02-19T17:44:06.470Z,60.48
2018-02-19T17:46:34.572Z,60.33
2018-02-19T17:49:03.011Z,60.28
2018-02-19T17:51:32.299Z,60.31
2018-02-19T17:54:03.166Z,60.35
2018-02-19T17:56:31.561Z,60.41
2018-02-19T17:58:59.120Z,60.42
2018-02-19T18:01:28.636Z,60.45
2018-02-19T18:03:56.548Z,60.39
2018-02-19T18:06:24.277Z,60.32
2018-02-19T18:08:51.896Z,60.43
2018-02-19T18:11:19.504Z,60.47
2018-02-19T18:13:47.738Z,60.49
2018-02-19T18:16:15.333Z,60.49
2018-02-19T18:18:43.837Z,60.54
2018-02-19T18:21:12.347Z,60.69
2018-02-19T18:23:39.896Z,60.75
2018-02-19T18:26:08.382Z,60.73
2018-02-19T18:28:35.936Z,60.76
2018-02-19T18:31:03.531Z,60.75
2018-02-19T18:33:31.088Z,60.75
2018-02-19T18:35:58.738Z,60.78
2018-02-19T18:38:27.107Z,60.92
2018-02-19T18:40:54.956Z,61.03
2018-02-19T18:43:22.555Z,61.06
2018-02-19T18:45:50.160Z,61.15
2018-02-19T18:48:17.712Z,61.18
2018-02-19T18:50:46.390Z,61.30
2018-02-19T18:53:14.734Z,61.36
2018-02-19T18:55:43.595Z,61.25
2018-02-19T18:58:11.536Z,61.29
2018-02-19T19:00:39.087Z,61.26
2018-02-19T19:03:07.440Z,61.22
2018-02-19T19:05:35.284Z,61.24
2018-02-19T19:08:14.575Z,61.23
2018-02-19T19:10:45.806Z,61.19
2018-02-19T19:13:13.384Z,61.18
2018-02-19T19:15:40.979Z,61.19
2018-02-19T19:18:08.527Z,61.03
2018-02-19T19:20:36.130Z,61.09
2018-02-19T19:23:04.672Z,61.19
2018-02-19T19:25:32.261Z,61.20
2018-02-19T19:27:59.805Z,61.16
2018-02-19T19:30:27.420Z,61.21
2018-02-19T19:32:55.270Z,60.96
2018-02-19T19:35:23.315Z,61.19
2018-02-19T19:37:50.864Z,61.20
2018-02-19T19:40:18.465Z,61.30
2018-02-19T19:42:46.053Z,61.41
2018-02-19T19:45:13.610Z,61.36
2018-02-19T19:47:42.032Z,61.17
2018-02-19T19:50:10.278Z,61.10
2018-02-19T19:52:38.153Z,61.24
2018-02-19T19:55:05.738Z,61.35
2018-02-19T19:57:33.303Z,61.20
2018-02-19T20:00:00.903Z,61.19
2018-02-19T20:02:28.459Z,61.20
2018-02-19T20:04:57.210Z,61.25
2018-02-19T20:07:24.814Z,61.28
2018-02-19T20:09:52.361Z,61.33
2018-02-19T20:12:20.232Z,61.45
2018-02-19T20:14:48.610Z,61.38
2018-02-19T20:17:16.845Z,61.32
2018-02-19T20:19:44.441Z,61.32
2018-02-19T20:22:12.040Z,61.38
2018-02-19T20:24:40.006Z,61.33
2018-02-19T20:27:07.763Z,61.30
2018-02-19T20:29:35.369Z,61.34
2018-02-19T20:32:03.232Z,61.36
2018-02-19T20:34:30.885Z,61.32
2018-02-19T20:36:58.784Z,61.37
2018-02-19T20:39:28.565Z,61.30
2018-02-19T20:41:56.184Z,61.26
2018-02-19T20:44:24.558Z,61.26
2018-02-19T20:46:52.140Z,61.35
2018-02-19T20:49:19.688Z,61.32
2018-02-19T20:51:48.335Z,61.33
2018-02-19T20:54:16.855Z,61.35
2018-02-19T20:56:44.790Z,61.34
2018-02-19T20:59:13.293Z,61.22
2018-02-19T21:01:40.837Z,61.12
2018-02-19T21:04:09.205Z,61.08
2018-02-19T21:06:36.809Z,61.05
2018-02-19T21:09:05.396Z,61.02
2018-02-19T21:11:33.375Z,61.19
2018-02-19T21:14:03.408Z,61.20
2018-02-19T21:16:30.996Z,61.06
2018-02-19T21:18:58.595Z,61.11
2018-02-19T21:21:26.183Z,61.17
2018-02-19T21:23:54.154Z,61.14
2018-02-19T21:26:22.294Z,61.23
2018-02-19T21:28:49.962Z,61.19
2018-02-19T21:31:17.502Z,61.10
2018-02-19T21:33:45.102Z,61.13
2018-02-19T21:36:13.107Z,61.19
2018-02-19T21:38:41.683Z,61.16
2018-02-19T21:41:09.252Z,61.20
2018-02-19T21:43:36.830Z,61.00
2018-02-19T21:46:04.423Z,61.17
2018-02-19T21:48:32.026Z,60.98
2018-02-19T21:50:59.783Z,61.06
2018-02-19T21:53:28.236Z,61.03
2018-02-19T21:55:55.788Z,61.00
2018-02-19T21:58:23.376Z,60.99
2018-02-19T22:00:51.439Z,61.08
2018-02-19T22:03:18.971Z,60.97
2018-02-19T22:05:46.563Z,60.94
2018-02-19T22:08:14.856Z,60.79
2018-02-19T22:10:42.671Z,60.92
2018-02-19T22:13:10.395Z,60.98
2018-02-19T22:15:37.984Z,60.81
2018-02-19T22:18:05.539Z,60.66
2018-02-19T22:20:33.160Z,60.74
2018-02-19T22:23:00.701Z,60.64
2018-02-19T22:25:28.284Z,60.49
2018-02-19T22:27:55.824Z,60.45
2018-02-19T22:30:23.416Z,60.27
2018-02-19T22:32:50.959Z,60.67
2018-02-19T22:35:18.497Z,60.58
2018-02-19T22:37:46.053Z,60.46
2018-02-19T22:40:13.588Z,60.51
2018-02-19T22:42:41.272Z,60.51
2018-02-19T22:45:08.971Z,60.41
2018-02-19T22:47:36.509Z,60.43
2018-02-19T22:50:04.046Z,60.27
2018-02-19T22:52:31.623Z,60.44
2018-02-19T22:54:59.216Z,60.56
2018-02-19T22:57:26.848Z,60.55
2018-02-19T22:59:54.430Z,60.40
2018-02-19T23:02:21.967Z,60.48
2018-02-19T23:04:49.510Z,60.51
2018-02-19T23:07:17.100Z,60.58
2018-02-19T23:09:44.630Z,60.34
2018-02-19T23:12:12.208Z,60.39
2018-02-19T23:14:40.572Z,60.55
2018-02-19T23:17:08.115Z,60.66
2018-02-19T23:19:36.001Z,60.50
2018-02-19T23:22:03.562Z,60.47
2018-02-19T23:24:31.138Z,60.47
2018-02-19T23:26:58.927Z,60.49
2018-02-19T23:29:26.519Z,60.41
2018-02-19T23:31:54.050Z,60.35
2018-02-19T23:34:21.586Z,60.48
2018-02-19T23:36:49.140Z,60.44
2018-02-19T23:39:16.745Z,60.32
2018-02-19T23:41:44.284Z,60.48
2018-02-19T23:44:11.830Z,60.49
2018-02-19T23:47:13.713Z,60.47
2018-02-19T23:50:04.450Z,60.23
2018-02-19T23:52:44.334Z,60.42
2018-02-19T23:55:11.894Z,60.50
2018-02-19T23:57:54.868Z,60.43
